KGAD

Northeast Alabama Regional Airport

Gadsden, Alabama, USA
METAR KGAD 161356Z AUTO 00000KT 7SM CLR M04/M05 A3033 RMK AO2 SLP281 T10441050 FZRANO
Observed Flight Rules
Dec-16 @ 13:56 UTC (59 minutes ago) Visual Flight Rules
Wind Visibility Clouds
Calm 7 miles
  • Clear skies
Temperatures Readings
Current -4°C / 25°F
Dewpoint -5°C / 23°F
Humidity 93%
Altimeter 30.33" Hg
Pressure 1028.1 hPa
Elevation 173
METAR KGAD 161356Z AUTO 00000KT 7SM CLR M04/M05 A3033 RMK AO2 SLP281 T10441050 FZRANO
Observed Flight Rules
Dec-16 @ 13:56 UTC
(59 minutes ago)
VFR
Wind Visibility
Calm 7 miles
Clouds
  • Clear skies
Temperature Dewpoint
-4°C / 25°F -5°C / 23°F
Humidity Altimeter Pressure
93% 30.33" Hg 1028.1 hPa